createdAt,value
2022-11-13T00:02:14.811Z,91.60
2022-11-13T00:05:06.301Z,91.79
2022-11-13T00:07:56.939Z,91.96
2022-11-13T00:10:47.585Z,92.29
2022-11-13T00:13:38.679Z,92.18
2022-11-13T00:16:29.478Z,92.02
2022-11-13T00:19:20.215Z,91.62
2022-11-13T00:22:10.861Z,91.69
2022-11-13T00:25:01.456Z,91.70
2022-11-13T00:27:52.339Z,91.75
2022-11-13T00:30:42.862Z,91.94
2022-11-13T00:36:44.163Z,92.04
2022-11-13T00:39:34.862Z,92.33
2022-11-13T00:42:25.796Z,92.55
2022-11-13T00:45:16.527Z,92.51
2022-11-13T00:48:07.766Z,92.43
2022-11-13T00:50:58.391Z,92.10
2022-11-13T00:53:48.841Z,91.97
2022-11-13T00:56:39.643Z,92.16
2022-11-13T00:59:30.168Z,91.98
2022-11-13T01:02:20.613Z,91.95
2022-11-13T01:05:11.727Z,92.18
2022-11-13T01:08:02.629Z,92.28
2022-11-13T01:10:53.949Z,92.47
2022-11-13T01:13:46.908Z,92.46
2022-11-13T01:16:37.250Z,92.48
2022-11-13T01:19:27.775Z,92.50
2022-11-13T01:22:18.579Z,92.29
2022-11-13T01:25:10.533Z,92.10
2022-11-13T01:28:01.319Z,92.30
2022-11-13T01:30:51.815Z,92.20
2022-11-13T01:33:42.800Z,92.14
2022-11-13T01:36:34.628Z,92.50
2022-11-13T01:39:25.510Z,92.31
2022-11-13T01:42:16.468Z,92.65
2022-11-13T01:45:45.089Z,93.06
2022-11-13T01:48:39.811Z,93.15
2022-11-13T01:51:34.276Z,92.63
2022-11-13T01:54:27.486Z,92.20
2022-11-13T01:57:20.673Z,92.42
2022-11-13T02:00:14.318Z,92.39
2022-11-13T02:03:05.686Z,92.44
2022-11-13T02:05:57.798Z,92.66
2022-11-13T02:08:50.266Z,92.52
2022-11-13T02:11:41.457Z,92.55
2022-11-13T02:14:32.403Z,92.73
2022-11-13T02:17:29.314Z,92.96
2022-11-13T02:20:22.653Z,93.04
2022-11-13T02:23:22.196Z,92.86
2022-11-13T02:26:14.170Z,92.52
2022-11-13T02:29:04.900Z,92.30
2022-11-13T02:31:55.935Z,92.50
2022-11-13T02:34:46.228Z,92.55
2022-11-13T02:37:36.932Z,92.68
2022-11-13T02:40:28.583Z,92.74
2022-11-13T02:43:18.952Z,93.12
2022-11-13T02:46:09.550Z,93.17
2022-11-13T02:49:00.514Z,93.53
2022-11-13T02:51:51.472Z,93.49
2022-11-13T02:54:41.941Z,93.48
2022-11-13T02:57:32.567Z,93.56
2022-11-13T03:00:23.281Z,92.73
2022-11-13T03:03:14.049Z,92.93
2022-11-13T03:06:04.893Z,93.08
2022-11-13T03:08:55.533Z,93.37
2022-11-13T03:11:47.006Z,93.47
2022-11-13T03:14:37.963Z,93.36
2022-11-13T03:17:28.665Z,93.40
2022-11-13T03:20:19.708Z,93.36
2022-11-13T03:23:10.122Z,93.89
2022-11-13T03:26:05.724Z,93.82
2022-11-13T03:28:54.705Z,93.93
2022-11-13T03:31:45.363Z,93.98
2022-11-13T03:34:36.365Z,93.82
2022-11-13T03:37:27.246Z,93.08
2022-11-13T03:40:18.244Z,93.38
2022-11-13T03:43:08.958Z,93.57
2022-11-13T03:45:59.814Z,93.32
2022-11-13T03:48:50.292Z,93.60
2022-11-13T03:51:40.810Z,93.66
2022-11-13T03:54:31.775Z,93.60
2022-11-13T03:57:22.957Z,93.66
2022-11-13T04:00:16.800Z,94.05
2022-11-13T04:03:07.949Z,94.33
2022-11-13T04:05:58.214Z,94.28
2022-11-13T04:08:49.021Z,94.03
2022-11-13T04:11:39.883Z,93.66
2022-11-13T04:14:30.665Z,93.80
2022-11-13T04:17:21.164Z,93.78
2022-11-13T04:20:13.503Z,93.76
2022-11-13T04:23:12.666Z,93.66
2022-11-13T04:26:03.618Z,93.88
2022-11-13T04:28:54.142Z,93.94
2022-11-13T04:31:45.140Z,94.07
2022-11-13T04:34:35.918Z,94.24
2022-11-13T04:37:26.316Z,94.37
2022-11-13T04:40:16.927Z,94.38
2022-11-13T04:43:07.886Z,94.27
2022-11-13T04:45:58.207Z,94.16
2022-11-13T04:48:49.049Z,94.06
2022-11-13T04:51:39.420Z,94.20
2022-11-13T04:54:30.250Z,94.11
2022-11-13T04:57:21.414Z,94.18
2022-11-13T05:00:14.466Z,94.39
2022-11-13T05:03:04.820Z,94.40
2022-11-13T05:05:55.263Z,94.89
2022-11-13T05:08:47.680Z,94.98
2022-11-13T05:11:38.845Z,95.05
2022-11-13T05:14:29.397Z,94.74
2022-11-13T05:17:20.122Z,94.33
2022-11-13T05:20:12.750Z,94.37
2022-11-13T05:23:03.142Z,94.35
2022-11-13T05:25:54.612Z,94.19
2022-11-13T05:28:45.985Z,94.09
2022-11-13T05:31:36.786Z,94.20
2022-11-13T05:34:27.641Z,94.75
2022-11-13T05:37:18.344Z,94.93
2022-11-13T05:40:12.836Z,95.18
2022-11-13T05:43:03.796Z,94.94
2022-11-13T05:46:00.054Z,94.47
2022-11-13T05:48:55.853Z,94.37
2022-11-13T05:51:47.009Z,94.43
2022-11-13T05:54:37.977Z,94.68
2022-11-13T05:57:28.397Z,94.62
2022-11-13T06:00:21.412Z,94.75
2022-11-13T06:03:12.131Z,94.84
2022-11-13T06:06:02.753Z,95.29
2022-11-13T06:08:54.328Z,95.34
2022-11-13T06:11:45.285Z,95.37
2022-11-13T06:14:36.090Z,95.04
2022-11-13T06:17:26.693Z,94.62
2022-11-13T06:20:17.472Z,94.65
2022-11-13T06:23:08.329Z,94.54
2022-11-13T06:26:05.124Z,94.68
2022-11-13T06:28:56.581Z,94.53
2022-11-13T06:31:47.479Z,94.73
2022-11-13T06:34:37.950Z,94.79
2022-11-13T06:37:31.471Z,94.97
2022-11-13T06:40:25.729Z,95.32
2022-11-13T06:43:16.401Z,95.25
2022-11-13T06:46:09.198Z,95.10
2022-11-13T06:49:00.756Z,94.70
2022-11-13T06:51:51.683Z,94.66
2022-11-13T06:54:42.378Z,94.80
2022-11-13T06:57:33.096Z,94.89
2022-11-13T07:00:24.105Z,94.58
2022-11-13T07:03:19.288Z,94.77
2022-11-13T07:06:14.081Z,95.05
2022-11-13T07:09:04.587Z,95.44
2022-11-13T07:11:55.134Z,95.58
2022-11-13T07:14:45.889Z,95.56
2022-11-13T07:17:36.925Z,95.45
2022-11-13T07:20:27.397Z,94.91
2022-11-13T07:23:17.844Z,94.94
2022-11-13T07:26:09.111Z,95.01
2022-11-13T07:28:59.800Z,95.07
2022-11-13T07:31:50.259Z,95.10
2022-11-13T07:34:40.682Z,95.14
2022-11-13T07:37:31.409Z,95.35
2022-11-13T07:40:22.396Z,95.28
2022-11-13T07:43:13.123Z,95.64
2022-11-13T07:46:04.111Z,95.88
2022-11-13T07:48:55.016Z,95.87
2022-11-13T07:51:45.925Z,95.71
2022-11-13T07:54:37.522Z,95.35
2022-11-13T07:57:28.385Z,94.88
2022-11-13T08:00:20.669Z,95.04
2022-11-13T08:03:13.853Z,95.24
2022-11-13T08:06:06.222Z,95.31
2022-11-13T08:08:56.896Z,95.42
2022-11-13T08:11:47.501Z,95.50
2022-11-13T08:14:37.896Z,95.69
2022-11-13T08:17:28.448Z,96.00
2022-11-13T08:20:20.041Z,95.91
2022-11-13T08:23:11.207Z,95.47
2022-11-13T08:26:07.130Z,95.32
2022-11-13T08:28:57.936Z,95.41
2022-11-13T08:31:48.946Z,95.56
2022-11-13T08:34:39.498Z,95.43
2022-11-13T08:37:30.275Z,95.02
2022-11-13T08:40:21.592Z,94.96
2022-11-13T08:43:12.450Z,95.20
2022-11-13T08:46:03.202Z,95.87
2022-11-13T08:48:53.957Z,95.80
2022-11-13T08:51:44.582Z,95.23
2022-11-13T08:54:35.467Z,94.73
2022-11-13T08:57:26.169Z,95.05
2022-11-13T09:00:17.807Z,95.32
2022-11-13T09:03:10.364Z,95.10
2022-11-13T09:06:00.979Z,95.10
2022-11-13T09:08:51.896Z,95.28
2022-11-13T09:11:42.268Z,95.94
2022-11-13T09:14:33.073Z,95.46
2022-11-13T09:17:23.724Z,94.96
2022-11-13T09:20:15.600Z,94.80
2022-11-13T09:23:09.995Z,94.79
2022-11-13T09:26:03.901Z,95.29
2022-11-13T09:28:54.777Z,95.32
2022-11-13T09:31:45.777Z,94.89
2022-11-13T09:34:36.286Z,95.05
2022-11-13T09:37:27.120Z,95.07
2022-11-13T09:40:28.187Z,95.03
2022-11-13T09:43:28.720Z,95.17
2022-11-13T09:46:27.695Z,95.41
2022-11-13T09:49:20.473Z,94.87
2022-11-13T09:52:16.625Z,94.76
2022-11-13T09:55:10.762Z,94.53
2022-11-13T09:58:08.284Z,94.92
2022-11-13T10:00:59.843Z,95.07
2022-11-13T10:04:02.364Z,95.07
2022-11-13T10:07:09.884Z,95.14
2022-11-13T10:10:17.036Z,94.87
2022-11-13T10:13:12.579Z,95.08
2022-11-13T10:16:05.329Z,95.64
2022-11-13T10:19:01.844Z,95.41
2022-11-13T10:22:31.170Z,95.08
2022-11-13T10:25:16.425Z,94.47
2022-11-13T10:28:43.625Z,94.75
2022-11-13T10:31:26.503Z,94.55
2022-11-13T10:34:18.434Z,95.05
2022-11-13T10:37:28.409Z,95.28
2022-11-13T10:40:28.796Z,95.40
2022-11-13T10:43:22.435Z,95.86
2022-11-13T10:46:22.928Z,96.03
2022-11-13T10:49:21.727Z,96.18
2022-11-13T10:52:21.205Z,95.92
2022-11-13T10:55:22.976Z,96.03
2022-11-13T10:58:18.451Z,95.20
2022-11-13T11:01:23.040Z,95.10
2022-11-13T11:04:21.237Z,94.81
2022-11-13T11:07:20.977Z,94.89
2022-11-13T11:10:34.026Z,95.20
2022-11-13T11:13:25.624Z,95.61
2022-11-13T11:16:22.881Z,95.63
2022-11-13T11:19:16.630Z,95.69
2022-11-13T11:22:16.139Z,95.78
2022-11-13T11:25:13.243Z,95.38
2022-11-13T11:28:12.498Z,95.06
2022-11-13T11:31:11.694Z,94.63
2022-11-13T11:34:11.207Z,94.83
2022-11-13T11:37:08.698Z,94.91
2022-11-13T11:40:05.366Z,95.10
2022-11-13T11:43:02.544Z,95.14
2022-11-13T11:45:54.038Z,95.33
2022-11-13T11:48:44.843Z,95.51
2022-11-13T11:51:43.174Z,95.63
2022-11-13T11:54:43.861Z,95.48
2022-11-13T11:57:49.874Z,94.81
2022-11-13T12:00:48.429Z,94.84
2022-11-13T12:04:07.657Z,94.81
2022-11-13T12:07:15.608Z,94.58
2022-11-13T12:10:25.545Z,94.87
2022-11-13T12:13:28.411Z,95.25
2022-11-13T12:16:27.428Z,95.40
2022-11-13T12:19:29.097Z,95.25
2022-11-13T12:22:36.507Z,95.05
2022-11-13T12:25:35.864Z,94.54
2022-11-13T12:28:40.628Z,94.48
2022-11-13T12:31:47.940Z,94.58
2022-11-13T12:34:43.717Z,94.38
2022-11-13T12:37:42.990Z,94.52
2022-11-13T12:40:44.016Z,94.94
2022-11-13T12:43:54.605Z,95.04
2022-11-13T12:46:46.760Z,95.22
2022-11-13T12:49:38.870Z,94.91
2022-11-13T12:52:30.371Z,94.32
2022-11-13T12:55:30.865Z,94.56
2022-11-13T12:58:26.119Z,94.36
2022-11-13T13:01:21.459Z,94.46
2022-11-13T13:04:35.859Z,94.54
2022-11-13T13:07:43.714Z,94.77
2022-11-13T13:10:46.400Z,94.66
2022-11-13T13:13:45.881Z,94.86
2022-11-13T13:16:37.097Z,94.92
2022-11-13T13:19:30.361Z,94.79
2022-11-13T13:22:31.046Z,94.58
2022-11-13T13:25:29.762Z,94.27
2022-11-13T13:28:24.099Z,94.26
2022-11-13T13:31:23.791Z,94.21
2022-11-13T13:34:38.376Z,94.21
2022-11-13T13:37:38.529Z,94.15
2022-11-13T13:40:39.288Z,94.25
2022-11-13T13:43:45.197Z,94.45
2022-11-13T13:46:36.977Z,94.51
2022-11-13T13:49:28.910Z,94.53
2022-11-13T13:52:28.111Z,94.43
2022-11-13T13:55:26.647Z,93.84
2022-11-13T13:58:20.584Z,93.67
2022-11-13T14:01:19.629Z,93.75
2022-11-13T14:04:16.421Z,93.56
2022-11-13T14:07:19.959Z,93.69
2022-11-13T14:10:19.152Z,93.74
2022-11-13T14:13:15.230Z,94.14
2022-11-13T14:16:09.177Z,94.30
2022-11-13T14:19:06.977Z,94.23
2022-11-13T14:22:01.368Z,93.91
2022-11-13T14:24:55.027Z,93.61
2022-11-13T14:27:45.772Z,93.70
2022-11-13T14:30:36.343Z,93.55
2022-11-13T14:33:36.314Z,93.61
2022-11-13T14:36:31.757Z,93.64
2022-11-13T14:39:27.755Z,93.67
2022-11-13T14:42:26.219Z,94.23
2022-11-13T14:45:20.088Z,94.31
2022-11-13T14:48:22.754Z,94.22
2022-11-13T14:51:27.022Z,93.85
2022-11-13T14:54:53.242Z,93.38
2022-11-13T14:57:51.513Z,93.40
2022-11-13T15:00:42.779Z,93.32
2022-11-13T15:03:34.085Z,93.33
2022-11-13T15:06:26.463Z,93.45
2022-11-13T15:09:18.882Z,93.65
2022-11-13T15:12:13.320Z,93.70
2022-11-13T15:15:04.205Z,93.90
2022-11-13T15:17:55.262Z,93.56
2022-11-13T15:20:46.964Z,93.34
2022-11-13T15:23:37.590Z,93.19
2022-11-13T15:26:28.732Z,93.14
2022-11-13T15:29:19.329Z,93.13
2022-11-13T15:32:13.259Z,93.30
2022-11-13T15:35:05.176Z,93.21
2022-11-13T15:37:56.203Z,93.62
2022-11-13T15:40:46.619Z,93.87
2022-11-13T15:43:37.540Z,93.72
2022-11-13T15:46:28.185Z,93.46
2022-11-13T15:49:18.857Z,93.14
2022-11-13T15:52:10.379Z,93.12
2022-11-13T15:55:02.443Z,93.41
2022-11-13T15:57:53.505Z,93.27
2022-11-13T16:00:46.173Z,93.17
2022-11-13T16:03:40.182Z,93.32
2022-11-13T16:06:31.521Z,93.42
2022-11-13T16:09:22.255Z,93.69
2022-11-13T16:12:14.002Z,93.91
2022-11-13T16:15:05.218Z,93.83
2022-11-13T16:17:58.796Z,93.22
2022-11-13T16:20:49.696Z,92.65
2022-11-13T16:23:40.864Z,92.75
2022-11-13T16:26:31.847Z,92.98
2022-11-13T16:29:24.854Z,92.81
2022-11-13T16:32:18.062Z,93.06
2022-11-13T16:35:10.579Z,92.87
2022-11-13T16:38:01.490Z,93.20
2022-11-13T16:40:52.484Z,92.87
2022-11-13T16:43:43.152Z,93.20
2022-11-13T16:46:35.491Z,93.23
2022-11-13T16:49:26.067Z,93.52
2022-11-13T16:52:16.693Z,93.26
2022-11-13T16:55:08.929Z,92.81
2022-11-13T16:57:59.945Z,92.69
2022-11-13T17:00:50.511Z,92.52
2022-11-13T17:03:40.863Z,92.76
2022-11-13T17:06:32.614Z,92.81
2022-11-13T17:09:23.319Z,92.97
2022-11-13T17:12:17.004Z,92.93
2022-11-13T17:15:11.576Z,93.39
2022-11-13T17:18:02.227Z,93.03
2022-11-13T17:20:54.959Z,93.14
2022-11-13T17:23:45.842Z,93.13
2022-11-13T17:26:36.570Z,92.91
2022-11-13T17:29:27.940Z,92.79
2022-11-13T17:32:18.953Z,92.97
2022-11-13T17:35:10.508Z,92.81
2022-11-13T17:38:01.174Z,92.94
2022-11-13T17:40:51.595Z,92.99
2022-11-13T17:43:43.449Z,93.11
2022-11-13T17:46:34.382Z,93.37
2022-11-13T17:49:24.805Z,93.44
2022-11-13T17:52:15.559Z,93.15
2022-11-13T17:55:07.773Z,92.78
2022-11-13T17:58:01.881Z,92.70
2022-11-13T18:00:53.888Z,92.69
2022-11-13T18:03:44.868Z,92.71
2022-11-13T18:06:35.293Z,92.76
2022-11-13T18:09:26.006Z,92.76
2022-11-13T18:12:16.445Z,93.04
2022-11-13T18:15:08.497Z,93.08
2022-11-13T18:17:59.112Z,93.01
2022-11-13T18:20:49.909Z,92.81
2022-11-13T18:23:40.637Z,92.57
2022-11-13T18:26:32.467Z,92.34
2022-11-13T18:29:23.426Z,92.41
2022-11-13T18:32:14.548Z,92.38
2022-11-13T18:35:06.226Z,92.49
2022-11-13T18:37:57.356Z,92.65
2022-11-13T18:40:48.160Z,92.82
2022-11-13T18:43:39.295Z,92.81
2022-11-13T18:46:30.871Z,92.88
2022-11-13T18:49:21.804Z,92.66
2022-11-13T18:52:12.817Z,92.17
2022-11-13T18:55:03.769Z,92.15
2022-11-13T18:57:54.733Z,92.18
2022-11-13T19:00:45.663Z,92.14
2022-11-13T19:03:36.753Z,92.14
2022-11-13T19:06:28.093Z,92.45
2022-11-13T19:09:19.870Z,92.34
2022-11-13T19:12:10.945Z,92.50
2022-11-13T19:15:03.017Z,92.77
2022-11-13T19:17:53.770Z,92.51
2022-11-13T19:20:44.398Z,92.01
2022-11-13T19:23:35.355Z,91.77
2022-11-13T19:26:26.801Z,91.83
2022-11-13T19:29:17.401Z,91.90
2022-11-13T19:32:08.121Z,91.92
2022-11-13T19:34:58.678Z,92.10
2022-11-13T19:37:49.330Z,92.50
2022-11-13T19:40:39.931Z,92.31
2022-11-13T19:43:31.838Z,92.58
2022-11-13T19:46:23.230Z,92.17
2022-11-13T19:49:13.914Z,91.58
2022-11-13T19:52:04.814Z,91.65
2022-11-13T19:54:55.367Z,91.69
2022-11-13T19:57:46.448Z,91.82
2022-11-13T20:00:37.493Z,91.57
2022-11-13T20:03:28.753Z,91.68
2022-11-13T20:06:19.788Z,92.03
2022-11-13T20:09:11.053Z,92.08
2022-11-13T20:12:01.993Z,92.25
2022-11-13T20:14:52.576Z,91.96
2022-11-13T20:17:43.548Z,91.67
2022-11-13T20:20:34.454Z,91.78
2022-11-13T20:23:26.081Z,91.49
2022-11-13T20:26:17.157Z,91.63
2022-11-13T20:29:07.845Z,91.46
2022-11-13T20:31:58.915Z,91.60
2022-11-13T20:34:49.646Z,91.69
2022-11-13T20:37:40.107Z,91.99
2022-11-13T20:40:30.710Z,92.01
2022-11-13T20:43:21.281Z,91.90
2022-11-13T20:46:14.493Z,91.56
2022-11-13T20:49:05.354Z,91.45
2022-11-13T20:51:57.443Z,91.30
2022-11-13T20:54:48.372Z,91.21
2022-11-13T20:57:41.067Z,91.23
2022-11-13T21:00:32.030Z,90.98
2022-11-13T21:03:22.883Z,91.08
2022-11-13T21:06:15.839Z,91.52
2022-11-13T21:09:06.669Z,91.68
2022-11-13T21:11:57.501Z,91.76
2022-11-13T21:14:48.535Z,91.72
2022-11-13T21:17:39.116Z,91.15
2022-11-13T21:20:29.988Z,91.00
2022-11-13T21:23:21.055Z,91.10
2022-11-13T21:26:12.141Z,91.20
2022-11-13T21:29:03.153Z,91.08
2022-11-13T21:31:53.946Z,91.27
2022-11-13T21:34:46.685Z,91.48
2022-11-13T21:37:37.512Z,91.51
2022-11-13T21:40:28.214Z,91.54
2022-11-13T21:43:18.728Z,91.36
2022-11-13T21:46:09.449Z,90.84
2022-11-13T21:49:02.585Z,90.76
2022-11-13T21:51:53.408Z,90.83
2022-11-13T21:54:43.882Z,90.62
2022-11-13T21:57:34.762Z,90.49
2022-11-13T22:00:25.568Z,90.81
2022-11-13T22:03:16.346Z,90.89
2022-11-13T22:06:18.696Z,91.06
2022-11-13T22:09:17.669Z,91.23
2022-11-13T22:12:08.776Z,90.93
2022-11-13T22:14:59.550Z,90.19
2022-11-13T22:17:50.078Z,90.15
2022-11-13T22:20:40.631Z,90.05
2022-11-13T22:23:31.310Z,90.40
2022-11-13T22:26:22.962Z,90.23
2022-11-13T22:29:14.743Z,90.60
2022-11-13T22:32:05.554Z,90.78
2022-11-13T22:34:55.838Z,90.96
2022-11-13T22:37:46.615Z,90.62
2022-11-13T22:40:36.886Z,90.05
2022-11-13T22:43:27.309Z,90.12
2022-11-13T22:46:19.425Z,90.27
2022-11-13T22:49:12.101Z,90.13
2022-11-13T22:52:02.332Z,90.09
2022-11-13T22:54:52.492Z,89.92
2022-11-13T22:57:42.913Z,90.24
2022-11-13T23:00:33.553Z,90.47
2022-11-13T23:03:24.026Z,90.43
2022-11-13T23:06:15.924Z,90.50
2022-11-13T23:09:07.511Z,90.35
2022-11-13T23:11:57.969Z,89.85
2022-11-13T23:14:48.979Z,89.82
2022-11-13T23:17:39.811Z,89.83
2022-11-13T23:20:30.129Z,89.75
2022-11-13T23:23:20.833Z,89.93
2022-11-13T23:26:12.887Z,90.09
2022-11-13T23:29:03.466Z,90.01
2022-11-13T23:31:53.989Z,89.88
2022-11-13T23:35:00.503Z,90.04
2022-11-13T23:37:51.779Z,89.84
2022-11-13T23:40:42.354Z,89.56
2022-11-13T23:44:06.611Z,89.47
2022-11-13T23:46:44.115Z,89.34
2022-11-13T23:49:34.942Z,89.34
2022-11-13T23:52:25.648Z,89.19
2022-11-13T23:55:16.992Z,89.45
2022-11-13T23:58:11.173Z,89.46
